createdAt,value
2019-02-06T00:00:57.630Z,4.69
2019-02-06T00:01:57.638Z,4.7
2019-02-06T00:02:58.167Z,4.75
2019-02-06T00:03:57.427Z,4.8
2019-02-06T00:04:57.684Z,4.7
2019-02-06T00:06:12.357Z,4.69
2019-02-06T00:06:57.716Z,4.66
2019-02-06T00:07:57.749Z,4.67
2019-02-06T00:08:57.896Z,4.77
2019-02-06T00:09:58.216Z,4.69
2019-02-06T00:10:57.918Z,4.69
2019-02-06T00:11:57.806Z,4.67
2019-02-06T00:13:57.913Z,4.67
2019-02-06T00:14:57.992Z,4.69
2019-02-06T00:15:57.633Z,4.66
2019-02-06T00:16:58.195Z,4.69
2019-02-06T00:17:57.936Z,4.65
2019-02-06T00:18:57.909Z,4.65
2019-02-06T00:19:57.878Z,4.66
2019-02-06T00:20:57.907Z,4.72
2019-02-06T00:22:12.563Z,4.7
2019-02-06T00:22:58.050Z,4.73
2019-02-06T00:23:57.941Z,4.73
2019-02-06T00:24:58.597Z,4.67
2019-02-06T00:25:57.967Z,4.7
2019-02-06T00:26:57.981Z,4.72
2019-02-06T00:27:58.000Z,4.77
2019-02-06T00:28:58.001Z,4.73
2019-02-06T00:29:58.020Z,4.75
2019-02-06T00:31:58.039Z,4.72
2019-02-06T00:32:58.563Z,4.66
2019-02-06T00:34:58.080Z,4.65
2019-02-06T00:35:58.099Z,4.66
2019-02-06T00:37:12.768Z,4.72
2019-02-06T00:37:58.137Z,4.6
2019-02-06T00:38:58.142Z,4.66
2019-02-06T00:39:58.152Z,4.58
2019-02-06T00:40:58.540Z,4.58
2019-02-06T00:41:58.201Z,4.52
2019-02-06T00:42:58.204Z,4.54
2019-02-06T00:43:58.227Z,4.55
2019-02-06T00:44:58.230Z,4.55
2019-02-06T00:45:58.232Z,4.63
2019-02-06T00:46:58.260Z,4.67
2019-02-06T00:47:58.563Z,4.6
2019-02-06T00:49:58.297Z,4.59
2019-02-06T00:50:58.311Z,4.66
2019-02-06T00:51:58.329Z,4.62
2019-02-06T00:52:58.343Z,4.69
2019-02-06T00:54:58.365Z,4.66
2019-02-06T00:55:59.001Z,4.58
2019-02-06T00:56:58.398Z,4.59
2019-02-06T00:57:58.409Z,4.65
2019-02-06T00:58:58.425Z,4.62
2019-02-06T01:00:00.868Z,4.6
2019-02-06T01:00:58.453Z,4.63
2019-02-06T01:01:58.467Z,4.67
2019-02-06T01:02:58.273Z,4.73
2019-02-06T01:04:58.507Z,4.62
2019-02-06T01:05:58.532Z,4.6
2019-02-06T01:07:58.556Z,4.59
2019-02-06T01:09:13.226Z,4.62
2019-02-06T01:09:58.583Z,4.58
2019-02-06T01:10:58.834Z,4.65
2019-02-06T01:11:58.607Z,4.59
2019-02-06T01:12:58.620Z,4.66
2019-02-06T01:13:58.630Z,4.7
2019-02-06T01:14:58.404Z,4.62
2019-02-06T01:15:58.661Z,4.55
2019-02-06T01:16:58.688Z,4.54
2019-02-06T01:17:58.692Z,4.59
2019-02-06T01:18:59.256Z,4.55
2019-02-06T01:19:58.726Z,4.55
2019-02-06T01:20:58.730Z,4.55
2019-02-06T01:21:58.752Z,4.62
2019-02-06T01:22:58.759Z,4.58
2019-02-06T01:23:58.784Z,4.52
2019-02-06T01:25:13.447Z,4.55
2019-02-06T01:25:59.063Z,4.62
2019-02-06T01:26:58.823Z,4.52
2019-02-06T01:27:58.832Z,4.5
2019-02-06T01:28:58.851Z,4.52
2019-02-06T01:29:58.865Z,4.48
2019-02-06T01:30:58.868Z,4.47
2019-02-06T01:31:58.902Z,4.62
2019-02-06T01:32:58.901Z,4.52
2019-02-06T01:33:59.555Z,4.52
2019-02-06T01:34:58.937Z,4.48
2019-02-06T01:35:58.941Z,4.54
2019-02-06T01:36:58.974Z,4.63
2019-02-06T01:37:58.980Z,4.65
2019-02-06T01:38:58.992Z,4.65
2019-02-06T01:39:59.001Z,4.59
2019-02-06T01:41:13.671Z,4.62
2019-02-06T01:41:59.035Z,4.65
2019-02-06T01:44:59.069Z,4.59
2019-02-06T01:45:59.201Z,4.6
2019-02-06T01:46:59.097Z,4.55
2019-02-06T01:47:59.110Z,4.52
2019-02-06T01:50:13.796Z,4.6
2019-02-06T01:51:59.169Z,4.59
2019-02-06T01:52:59.186Z,4.51
2019-02-06T01:53:59.198Z,4.6
2019-02-06T01:55:59.233Z,4.63
2019-02-06T01:57:13.961Z,4.62
2019-02-06T01:57:59.257Z,4.67
2019-02-06T01:59:13.930Z,4.63
2019-02-06T01:59:59.283Z,4.58
2019-02-06T02:00:59.290Z,4.58
2019-02-06T02:01:59.309Z,4.51
2019-02-06T02:02:59.325Z,4.62
2019-02-06T02:03:59.775Z,4.48
2019-02-06T02:04:59.444Z,4.58
2019-02-06T02:06:07.120Z,4.59
2019-02-06T02:06:59.381Z,4.59
2019-02-06T02:08:59.411Z,4.54
2019-02-06T02:09:59.420Z,4.58
2019-02-06T02:10:59.444Z,4.58
2019-02-06T02:12:14.110Z,4.51
2019-02-06T02:12:59.467Z,4.59
2019-02-06T02:13:59.473Z,4.45
2019-02-06T02:14:59.485Z,4.52
2019-02-06T02:15:59.510Z,4.52
2019-02-06T02:16:59.522Z,4.52
2019-02-06T02:17:59.532Z,4.54
2019-02-06T02:18:59.910Z,4.55
2019-02-06T02:20:14.219Z,4.48
2019-02-06T02:20:59.687Z,4.41
2019-02-06T02:21:59.591Z,4.48
2019-02-06T02:22:59.604Z,4.47
2019-02-06T02:23:59.622Z,4.41
2019-02-06T02:24:59.632Z,4.41
2019-02-06T02:25:59.659Z,4.45
2019-02-06T02:27:00.225Z,4.47
2019-02-06T02:27:59.671Z,4.44
2019-02-06T02:28:59.690Z,4.47
2019-02-06T02:29:59.706Z,4.36
2019-02-06T02:30:59.852Z,4.4
2019-02-06T02:31:59.734Z,4.47
2019-02-06T02:32:59.751Z,4.48
2019-02-06T02:33:59.763Z,4.44
2019-02-06T02:35:00.169Z,4.34
2019-02-06T02:35:59.790Z,4.34
2019-02-06T02:36:59.809Z,4.36
2019-02-06T02:37:59.924Z,4.3
2019-02-06T02:39:14.498Z,4.37
2019-02-06T02:39:59.852Z,4.37
2019-02-06T02:40:59.866Z,4.5
2019-02-06T02:43:00.227Z,4.47
2019-02-06T02:44:14.561Z,4.42
2019-02-06T02:44:59.920Z,4.36
2019-02-06T02:45:59.934Z,4.42
2019-02-06T02:46:59.949Z,4.44
2019-02-06T02:47:59.969Z,4.48
2019-02-06T02:48:59.982Z,4.44
2019-02-06T02:50:00.368Z,4.48
2019-02-06T02:50:59.999Z,4.45
2019-02-06T02:52:00.029Z,4.5
2019-02-06T02:53:00.170Z,4.45
2019-02-06T02:54:00.088Z,4.44
2019-02-06T02:55:00.054Z,4.52
2019-02-06T02:56:00.078Z,4.47
2019-02-06T02:57:00.105Z,4.45
2019-02-06T02:58:00.714Z,4.47
2019-02-06T02:59:00.112Z,4.45
2019-02-06T03:00:14.989Z,4.44
2019-02-06T03:01:00.141Z,4.48
2019-02-06T03:02:00.149Z,4.44
2019-02-06T03:03:00.171Z,4.47
2019-02-06T03:04:00.197Z,4.45
2019-02-06T03:05:00.191Z,4.47
2019-02-06T03:06:00.474Z,4.44
2019-02-06T03:07:00.227Z,4.47
2019-02-06T03:08:00.262Z,4.44
2019-02-06T03:09:14.906Z,4.54
2019-02-06T03:10:00.472Z,4.51
2019-02-06T03:11:00.276Z,4.44
2019-02-06T03:12:00.378Z,4.48
2019-02-06T03:13:00.582Z,4.41
2019-02-06T03:14:00.322Z,4.52
2019-02-06T03:15:00.333Z,4.44
2019-02-06T03:16:15.008Z,4.44
2019-02-06T03:17:03.117Z,4.48
2019-02-06T03:18:00.378Z,4.52
2019-02-06T03:19:00.408Z,4.5
2019-02-06T03:20:00.563Z,4.48
2019-02-06T03:21:00.918Z,4.52
2019-02-06T03:22:00.446Z,4.54
2019-02-06T03:23:00.458Z,4.52
2019-02-06T03:24:00.464Z,4.6
2019-02-06T03:25:00.471Z,4.62
2019-02-06T03:26:00.488Z,4.55
2019-02-06T03:27:00.500Z,4.58
2019-02-06T03:28:00.273Z,4.48
2019-02-06T03:29:00.843Z,4.55
2019-02-06T03:30:00.548Z,4.48
2019-02-06T03:31:00.570Z,4.5
2019-02-06T03:32:15.246Z,4.51
2019-02-06T03:33:00.599Z,4.58
2019-02-06T03:34:00.609Z,4.54
2019-02-06T03:35:00.620Z,4.54
2019-02-06T03:36:00.887Z,4.58
2019-02-06T03:37:00.654Z,4.62
2019-02-06T03:38:15.312Z,4.62
2019-02-06T03:39:00.668Z,4.66
2019-02-06T03:40:00.498Z,4.67
2019-02-06T03:41:00.765Z,4.66
2019-02-06T03:42:00.717Z,4.63
2019-02-06T03:43:00.727Z,4.7
2019-02-06T03:44:01.383Z,4.69
2019-02-06T03:45:00.753Z,4.65
2019-02-06T03:46:00.769Z,4.7
2019-02-06T03:47:15.439Z,4.62
2019-02-06T03:48:00.799Z,4.65
2019-02-06T03:49:00.809Z,4.72
2019-02-06T03:50:00.824Z,4.69
2019-02-06T03:51:01.023Z,4.7
2019-02-06T03:52:15.509Z,4.69
2019-02-06T03:53:00.883Z,4.73
2019-02-06T03:54:00.881Z,4.69
2019-02-06T03:55:00.896Z,4.75
2019-02-06T03:56:00.905Z,4.69
2019-02-06T03:57:00.928Z,4.65
2019-02-06T03:59:01.515Z,4.63
2019-02-06T04:00:00.718Z,4.6
2019-02-06T04:01:00.980Z,4.58
2019-02-06T04:02:00.996Z,4.63
2019-02-06T04:03:01.011Z,4.59
2019-02-06T04:04:15.760Z,4.58
2019-02-06T04:05:01.042Z,4.6
2019-02-06T04:06:15.707Z,4.55
2019-02-06T04:07:06.610Z,4.63
2019-02-06T04:08:15.732Z,4.62
2019-02-06T04:09:15.747Z,4.55
2019-02-06T04:10:01.102Z,4.58
2019-02-06T04:11:01.311Z,4.6
2019-02-06T04:12:01.244Z,4.55
2019-02-06T04:13:01.172Z,4.6
2019-02-06T04:14:01.409Z,4.54
2019-02-06T04:15:01.174Z,4.54
2019-02-06T04:16:01.194Z,4.51
2019-02-06T04:17:01.201Z,4.52
2019-02-06T04:18:01.209Z,4.45
2019-02-06T04:19:15.885Z,4.44
2019-02-06T04:20:01.288Z,4.41
2019-02-06T04:21:01.255Z,4.45
2019-02-06T04:22:01.824Z,4.41
2019-02-06T04:23:01.300Z,4.42
2019-02-06T04:24:01.303Z,4.48
2019-02-06T04:25:01.322Z,4.41
2019-02-06T04:26:01.330Z,4.44
2019-02-06T04:27:15.997Z,4.42
2019-02-06T04:28:01.384Z,4.41
2019-02-06T04:29:16.022Z,4.41
2019-02-06T04:30:01.857Z,4.42
2019-02-06T04:31:01.405Z,4.4
2019-02-06T04:32:01.411Z,4.45
2019-02-06T04:33:01.450Z,4.4
2019-02-06T04:34:01.443Z,4.4
2019-02-06T04:35:16.105Z,4.45
2019-02-06T04:36:01.466Z,4.47
2019-02-06T04:37:11.025Z,4.34
2019-02-06T04:39:01.572Z,4.41
2019-02-06T04:40:01.525Z,4.37
2019-02-06T04:41:01.531Z,4.33
2019-02-06T04:43:01.575Z,4.34
2019-02-06T04:44:01.589Z,4.22
2019-02-06T04:45:02.154Z,4.27
2019-02-06T04:46:01.639Z,4.18
2019-02-06T04:47:01.738Z,4.06
2019-02-06T04:48:01.632Z,4.08
2019-02-06T04:49:01.658Z,4.02
2019-02-06T04:50:01.664Z,3.88
2019-02-06T04:51:16.347Z,3.87
2019-02-06T04:52:01.691Z,3.86
2019-02-06T04:53:02.036Z,3.84
2019-02-06T04:54:01.722Z,3.73
2019-02-06T04:55:01.734Z,3.8
2019-02-06T04:56:01.964Z,3.7
2019-02-06T04:57:01.901Z,3.62
2019-02-06T04:58:16.430Z,3.58
2019-02-06T04:59:01.786Z,3.6
2019-02-06T05:01:01.815Z,3.51
2019-02-06T05:02:01.829Z,3.47
2019-02-06T05:03:01.843Z,3.5
2019-02-06T05:04:01.857Z,3.4
2019-02-06T05:05:01.875Z,3.33
2019-02-06T05:06:01.890Z,3.26
2019-02-06T05:07:21.951Z,3.2
2019-02-06T05:08:02.489Z,3.21
2019-02-06T05:09:01.949Z,3.15
2019-02-06T05:10:01.938Z,3.14
2019-02-06T05:11:01.950Z,3.13
2019-02-06T05:12:01.966Z,3.15
2019-02-06T05:13:01.971Z,3.08
2019-02-06T05:14:01.992Z,3.13
2019-02-06T05:15:02.245Z,3.1
2019-02-06T05:16:02.023Z,3.11
2019-02-06T05:17:02.042Z,2.96
2019-02-06T05:18:02.043Z,2.97
2019-02-06T05:19:02.077Z,2.92
2019-02-06T05:20:02.087Z,3.06
2019-02-06T05:21:02.105Z,3
2019-02-06T05:22:16.761Z,2.93
2019-02-06T05:23:02.664Z,2.96
2019-02-06T05:24:02.131Z,2.84
2019-02-06T05:25:02.151Z,2.84
2019-02-06T05:26:02.151Z,2.93
2019-02-06T05:27:16.827Z,2.84
2019-02-06T05:28:02.195Z,2.84
2019-02-06T05:29:02.191Z,2.85
2019-02-06T05:30:16.881Z,2.77
2019-02-06T05:31:02.556Z,2.78
2019-02-06T05:33:02.267Z,2.71
2019-02-06T05:34:16.945Z,2.66
2019-02-06T05:35:02.274Z,2.6
2019-02-06T05:36:02.291Z,2.59
2019-02-06T05:37:02.308Z,2.52
2019-02-06T05:38:17.251Z,2.39
2019-02-06T05:39:02.339Z,2.41
2019-02-06T05:40:02.354Z,2.45
2019-02-06T05:42:02.369Z,2.41
2019-02-06T05:43:02.384Z,2.3
2019-02-06T05:44:02.399Z,2.31
2019-02-06T05:45:17.065Z,2.38
2019-02-06T05:46:17.076Z,2.25
2019-02-06T05:47:02.451Z,2.36
2019-02-06T05:48:02.456Z,2.35
2019-02-06T05:49:02.461Z,2.3
2019-02-06T05:50:02.706Z,2.2
2019-02-06T05:51:02.484Z,2.35
2019-02-06T05:52:02.502Z,2.34
2019-02-06T05:53:03.105Z,2.34
2019-02-06T05:54:17.189Z,2.3
2019-02-06T05:55:04.923Z,2.28
2019-02-06T05:56:02.554Z,2.17
2019-02-06T05:57:02.573Z,2.1
2019-02-06T05:58:02.658Z,2.16
2019-02-06T05:59:02.617Z,2.03
2019-02-06T06:00:02.608Z,2.03
2019-02-06T06:01:03.026Z,2.03
2019-02-06T06:02:17.284Z,1.99
2019-02-06T06:03:02.679Z,1.95
2019-02-06T06:04:02.669Z,1.9
2019-02-06T06:05:02.915Z,1.98
2019-02-06T06:06:02.690Z,1.9
2019-02-06T06:07:02.704Z,1.99
2019-02-06T06:08:03.307Z,1.98
2019-02-06T06:09:02.721Z,2.05
2019-02-06T06:11:02.790Z,2.09
2019-02-06T06:12:02.767Z,2.1
2019-02-06T06:13:02.779Z,2.14
2019-02-06T06:15:02.816Z,2.16
2019-02-06T06:16:03.145Z,2.07
2019-02-06T06:18:02.932Z,2.1
2019-02-06T06:20:02.869Z,2.07
2019-02-06T06:22:02.650Z,2.1
2019-02-06T06:23:17.982Z,2.03
2019-02-06T06:24:02.926Z,2.06
2019-02-06T06:25:02.965Z,1.98
2019-02-06T06:26:17.593Z,2
2019-02-06T06:27:02.945Z,1.98
2019-02-06T06:28:02.964Z,2.02
2019-02-06T06:29:03.008Z,2.07
2019-02-06T06:30:03.095Z,2.05
2019-02-06T06:31:03.002Z,2.03
2019-02-06T06:32:03.076Z,2.03
2019-02-06T06:33:02.802Z,1.99
2019-02-06T06:34:03.044Z,2.02
2019-02-06T06:35:03.146Z,1.86
2019-02-06T06:36:03.074Z,1.88
2019-02-06T06:37:03.093Z,1.87
2019-02-06T06:38:07.322Z,1.73
2019-02-06T06:39:03.110Z,1.84
2019-02-06T06:40:03.124Z,1.93
2019-02-06T06:42:17.805Z,1.83
2019-02-06T06:43:03.164Z,1.83
2019-02-06T06:44:03.171Z,1.86
2019-02-06T06:45:03.191Z,1.84
2019-02-06T06:46:03.405Z,1.76
2019-02-06T06:47:03.211Z,1.77
2019-02-06T06:48:03.234Z,1.76
2019-02-06T06:49:03.241Z,1.66
2019-02-06T06:50:03.243Z,1.73
2019-02-06T06:51:03.259Z,1.7
2019-02-06T06:52:06.445Z,1.7
2019-02-06T06:53:03.531Z,1.6
2019-02-06T06:54:03.324Z,1.6
2019-02-06T06:56:03.338Z,1.63
2019-02-06T06:57:18.000Z,1.6
2019-02-06T06:58:03.365Z,1.69
2019-02-06T06:59:03.370Z,1.68
2019-02-06T07:00:03.374Z,1.65
2019-02-06T07:01:03.991Z,1.77
2019-02-06T07:02:03.413Z,1.66
2019-02-06T07:03:03.462Z,1.63
2019-02-06T07:04:03.422Z,1.66
2019-02-06T07:05:05.550Z,1.66
2019-02-06T07:06:03.467Z,1.76
2019-02-06T07:08:28.724Z,1.77
2019-02-06T07:09:03.648Z,1.86
2019-02-06T07:10:03.500Z,1.87
2019-02-06T07:11:03.513Z,2.02
2019-02-06T07:12:03.530Z,2.05
2019-02-06T07:14:03.564Z,2.07
2019-02-06T07:15:03.563Z,2.23
2019-02-06T07:16:05.325Z,2.24
2019-02-06T07:17:03.594Z,2.31
2019-02-06T07:18:03.599Z,2.35
2019-02-06T07:19:03.723Z,2.45
2019-02-06T07:20:18.286Z,2.35
2019-02-06T07:21:21.163Z,2.43
2019-02-06T07:22:03.658Z,2.46
2019-02-06T07:23:18.338Z,2.57
2019-02-06T07:24:04.147Z,2.72
2019-02-06T07:25:03.689Z,2.79
2019-02-06T07:26:03.703Z,2.82
2019-02-06T07:27:03.731Z,2.78
2019-02-06T07:28:03.739Z,2.79
2019-02-06T07:29:18.518Z,2.85
2019-02-06T07:30:03.771Z,2.82
2019-02-06T07:31:03.775Z,2.89
2019-02-06T07:32:04.279Z,2.92
2019-02-06T07:33:03.800Z,2.92
2019-02-06T07:34:03.811Z,2.95
2019-02-06T07:35:03.599Z,3
2019-02-06T07:37:03.852Z,3.1
2019-02-06T07:38:03.865Z,3.08
2019-02-06T07:39:04.089Z,3.18
2019-02-06T07:40:03.901Z,3.1
2019-02-06T07:41:03.907Z,3.1
2019-02-06T07:42:03.928Z,3.15
2019-02-06T07:44:03.953Z,3.08
2019-02-06T07:45:18.625Z,3.17
2019-02-06T07:46:03.980Z,3.13
2019-02-06T07:47:04.404Z,3.14
2019-02-06T07:48:04.012Z,3.06
2019-02-06T07:49:04.012Z,3.15
2019-02-06T07:50:04.032Z,3.24
2019-02-06T07:51:04.037Z,3.31
2019-02-06T07:52:03.819Z,3.31
2019-02-06T07:53:04.077Z,3.32
2019-02-06T07:54:04.090Z,3.35
2019-02-06T07:55:04.479Z,3.39
2019-02-06T07:56:04.114Z,3.43
2019-02-06T07:57:04.136Z,3.45
2019-02-06T07:58:18.921Z,3.43
2019-02-06T07:59:04.264Z,3.51
2019-02-06T08:00:04.212Z,3.52
2019-02-06T08:01:18.845Z,3.5
2019-02-06T08:02:04.845Z,3.61
2019-02-06T08:03:04.230Z,3.52
2019-02-06T08:04:04.246Z,3.66
2019-02-06T08:05:04.342Z,3.79
2019-02-06T08:06:04.254Z,3.69
2019-02-06T08:07:04.267Z,3.72
2019-02-06T08:08:04.296Z,3.88
2019-02-06T08:09:04.300Z,3.93
2019-02-06T08:10:04.674Z,4.06
2019-02-06T08:11:05.573Z,4.05
2019-02-06T08:12:04.091Z,4.12
2019-02-06T08:13:04.376Z,4.15
2019-02-06T08:14:04.373Z,4.26
2019-02-06T08:15:04.392Z,4.27
2019-02-06T08:17:19.067Z,4.36
2019-02-06T08:18:04.426Z,4.34
2019-02-06T08:19:04.458Z,4.4
2019-02-06T08:20:04.463Z,4.33
2019-02-06T08:21:04.470Z,4.36
2019-02-06T08:22:04.506Z,4.27
2019-02-06T08:23:04.505Z,4.23
2019-02-06T08:24:04.579Z,4.27
2019-02-06T08:25:05.251Z,4.22
2019-02-06T08:26:04.555Z,4.2
2019-02-06T08:27:04.575Z,4.26
2019-02-06T08:29:04.586Z,4.22
2019-02-06T08:30:04.610Z,4.26
2019-02-06T08:31:04.625Z,4.27
2019-02-06T08:32:19.304Z,4.34
2019-02-06T08:33:05.043Z,4.33
2019-02-06T08:34:04.418Z,4.33
2019-02-06T08:35:04.692Z,4.34
2019-02-06T08:36:04.726Z,4.24
2019-02-06T08:37:04.721Z,4.33
2019-02-06T08:38:04.739Z,4.29
2019-02-06T08:39:04.749Z,4.4
2019-02-06T08:40:05.059Z,4.33
2019-02-06T08:41:04.785Z,4.36
2019-02-06T08:42:04.919Z,4.37
2019-02-06T08:43:04.806Z,4.48
2019-02-06T08:44:06.786Z,4.48
2019-02-06T08:45:04.923Z,4.42
2019-02-06T08:46:04.860Z,4.58
2019-02-06T08:47:04.868Z,4.55
2019-02-06T08:48:05.235Z,4.66
2019-02-06T08:49:19.560Z,4.63
2019-02-06T08:50:05.076Z,4.66
2019-02-06T08:51:05.032Z,4.67
2019-02-06T08:52:04.946Z,4.69
2019-02-06T08:53:04.966Z,4.72
2019-02-06T08:54:04.994Z,4.65
2019-02-06T08:55:04.986Z,4.67
2019-02-06T08:56:05.353Z,4.62
2019-02-06T08:57:05.031Z,4.63
2019-02-06T08:58:05.050Z,4.67
2019-02-06T08:59:05.053Z,4.72
2019-02-06T09:00:05.093Z,4.7
2019-02-06T09:01:05.082Z,4.75
2019-02-06T09:02:05.093Z,4.82
2019-02-06T09:03:05.408Z,4.77
2019-02-06T09:05:07.489Z,4.89
2019-02-06T09:06:05.169Z,4.88
2019-02-06T09:07:05.183Z,4.96
2019-02-06T09:08:05.187Z,4.86
2019-02-06T09:09:05.210Z,4.88
2019-02-06T09:10:05.224Z,4.94
2019-02-06T09:11:05.829Z,5.09
2019-02-06T09:13:05.280Z,5.02
2019-02-06T09:14:05.324Z,5
2019-02-06T09:15:05.331Z,5.13
2019-02-06T09:17:05.328Z,5.25
2019-02-06T09:18:05.347Z,5.22
2019-02-06T09:20:20.284Z,5.31
2019-02-06T09:21:05.410Z,5.38
2019-02-06T09:22:05.414Z,5.4
2019-02-06T09:23:05.425Z,5.42
2019-02-06T09:24:05.444Z,5.4
2019-02-06T09:25:05.462Z,5.45
2019-02-06T09:26:05.928Z,5.53
2019-02-06T09:27:05.492Z,5.49
2019-02-06T09:28:05.516Z,5.56
2019-02-06T09:29:05.516Z,5.46
2019-02-06T09:30:05.542Z,5.53
2019-02-06T09:31:05.549Z,5.57
2019-02-06T09:32:05.693Z,5.58
2019-02-06T09:33:05.591Z,5.72
2019-02-06T09:34:09.375Z,5.71
2019-02-06T09:35:05.638Z,5.83
2019-02-06T09:36:20.294Z,5.94
2019-02-06T09:37:07.657Z,5.96
2019-02-06T09:38:05.671Z,5.94
2019-02-06T09:39:16.485Z,5.93
2019-02-06T09:40:05.696Z,5.97
2019-02-06T09:41:05.954Z,6.01
2019-02-06T09:42:05.722Z,5.96
2019-02-06T09:43:05.751Z,5.99
2019-02-06T09:44:05.764Z,5.94
2019-02-06T09:46:05.792Z,5.96
2019-02-06T09:47:05.808Z,6.09
2019-02-06T09:48:05.845Z,6.14
2019-02-06T09:49:06.538Z,6.12
2019-02-06T09:51:05.866Z,6.14
2019-02-06T09:52:20.547Z,6.17
2019-02-06T09:53:05.908Z,6.17
2019-02-06T09:54:05.932Z,6.28
2019-02-06T09:55:20.616Z,6.34
2019-02-06T09:56:06.209Z,6.34
2019-02-06T09:57:05.980Z,6.4
2019-02-06T09:58:05.985Z,6.3
2019-02-06T09:59:06.021Z,6.4
2019-02-06T10:00:06.023Z,6.33
2019-02-06T10:01:06.031Z,6.34
2019-02-06T10:02:06.060Z,6.37
2019-02-06T10:03:06.145Z,6.37
2019-02-06T10:04:06.586Z,6.41
2019-02-06T10:05:06.113Z,6.46
2019-02-06T10:06:06.123Z,6.43
2019-02-06T10:07:20.796Z,6.43
2019-02-06T10:08:06.149Z,6.38
2019-02-06T10:09:06.161Z,6.43
2019-02-06T10:10:06.195Z,6.37
2019-02-06T10:11:06.207Z,6.38
2019-02-06T10:12:06.486Z,6.44
2019-02-06T10:13:06.352Z,6.31
2019-02-06T10:14:06.359Z,6.44
2019-02-06T10:15:06.277Z,6.44
2019-02-06T10:16:06.307Z,6.52
2019-02-06T10:17:06.438Z,6.61
2019-02-06T10:18:06.328Z,6.56
2019-02-06T10:19:06.623Z,6.54
2019-02-06T10:20:06.348Z,6.55
2019-02-06T10:21:06.478Z,6.66
2019-02-06T10:23:06.408Z,6.73
2019-02-06T10:24:06.414Z,6.7
2019-02-06T10:25:06.435Z,6.73
2019-02-06T10:26:06.457Z,6.76
2019-02-06T10:27:07.062Z,6.74
2019-02-06T10:28:06.487Z,6.64
2019-02-06T10:29:06.604Z,6.61
2019-02-06T10:30:08.800Z,6.58
2019-02-06T10:31:06.571Z,6.61
2019-02-06T10:32:21.205Z,6.61
2019-02-06T10:33:06.571Z,6.67
2019-02-06T10:34:06.581Z,6.74
2019-02-06T10:35:06.816Z,6.73
2019-02-06T10:36:06.623Z,6.73
2019-02-06T10:37:06.635Z,6.76
2019-02-06T10:38:06.658Z,6.84
2019-02-06T10:39:21.329Z,6.89
2019-02-06T10:40:06.708Z,6.94
2019-02-06T10:41:09.616Z,6.97
2019-02-06T10:42:06.874Z,7.12
2019-02-06T10:43:31.478Z,6.98
2019-02-06T10:44:21.409Z,6.97
2019-02-06T10:45:06.797Z,6.95
2019-02-06T10:46:06.785Z,6.91
2019-02-06T10:47:06.800Z,6.81
2019-02-06T10:48:06.835Z,6.74
2019-02-06T10:49:06.825Z,6.73
2019-02-06T10:50:07.405Z,6.81
2019-02-06T10:51:06.869Z,6.77
2019-02-06T10:52:06.877Z,6.84
2019-02-06T10:53:06.899Z,6.92
2019-02-06T10:54:06.913Z,6.88
2019-02-06T10:55:21.583Z,6.95
2019-02-06T10:56:06.946Z,7.05
2019-02-06T10:57:10.041Z,6.99
2019-02-06T10:58:07.136Z,6.99
2019-02-06T10:59:06.997Z,6.97
2019-02-06T11:00:07.013Z,7.09
2019-02-06T11:01:07.027Z,7.05
2019-02-06T11:02:07.041Z,7.06
2019-02-06T11:03:07.057Z,7.1
2019-02-06T11:04:07.077Z,7.17
2019-02-06T11:05:07.542Z,7.13
2019-02-06T11:06:07.188Z,7.16
2019-02-06T11:07:08.164Z,7.27
2019-02-06T11:08:07.140Z,7.24
2019-02-06T11:09:07.157Z,7.32
2019-02-06T11:10:07.173Z,7.39
2019-02-06T11:11:21.850Z,7.42
2019-02-06T11:12:07.207Z,7.37
2019-02-06T11:13:07.899Z,7.35
2019-02-06T11:14:07.241Z,7.42
2019-02-06T11:15:07.262Z,7.39
2019-02-06T11:16:07.288Z,7.32
2019-02-06T11:17:07.285Z,7.5
2019-02-06T11:18:07.308Z,7.46
2019-02-06T11:19:21.975Z,7.53
2019-02-06T11:20:07.637Z,7.48
2019-02-06T11:21:07.346Z,7.52
2019-02-06T11:22:07.376Z,7.5
2019-02-06T11:23:22.035Z,7.46
2019-02-06T11:24:07.402Z,7.6
2019-02-06T11:25:09.470Z,7.55
2019-02-06T11:26:07.436Z,7.58
2019-02-06T11:27:22.103Z,7.71
2019-02-06T11:28:08.042Z,7.75
2019-02-06T11:29:07.482Z,7.8
2019-02-06T11:30:07.499Z,7.77
2019-02-06T11:31:07.513Z,7.87
2019-02-06T11:32:07.535Z,7.86
2019-02-06T11:34:07.568Z,7.8
2019-02-06T11:35:07.624Z,7.89
2019-02-06T11:36:08.373Z,7.92
2019-02-06T11:37:07.615Z,7.86
2019-02-06T11:38:07.782Z,7.9
2019-02-06T11:39:07.647Z,7.85
2019-02-06T11:40:07.668Z,7.71
2019-02-06T11:41:07.688Z,7.69
2019-02-06T11:42:22.359Z,7.9
2019-02-06T11:43:07.853Z,7.89
2019-02-06T11:44:07.980Z,7.95
2019-02-06T11:45:07.847Z,8.04
2019-02-06T11:46:09.091Z,8.08
2019-02-06T11:47:07.780Z,8.3
2019-02-06T11:48:07.808Z,8.23
2019-02-06T11:49:22.479Z,8.16
2019-02-06T11:50:07.854Z,8.25
2019-02-06T11:51:08.396Z,8.26
2019-02-06T11:52:07.863Z,8.2
2019-02-06T11:53:07.917Z,8.28
2019-02-06T11:54:07.899Z,8.22
2019-02-06T11:55:11.017Z,8.41
2019-02-06T11:56:07.937Z,8.48
2019-02-06T11:57:07.960Z,8.34
2019-02-06T11:58:07.964Z,8.36
2019-02-06T11:59:08.556Z,8.4
2019-02-06T12:00:08.003Z,8.3
2019-02-06T12:01:08.015Z,8.44
2019-02-06T12:02:08.055Z,8.44
2019-02-06T12:03:08.048Z,8.38
2019-02-06T12:04:08.089Z,8.44
2019-02-06T12:05:08.092Z,8.36
2019-02-06T12:06:22.949Z,8.3
2019-02-06T12:07:08.114Z,8.38
2019-02-06T12:08:08.134Z,8.44
2019-02-06T12:09:08.152Z,8.41
2019-02-06T12:10:14.886Z,8.34
2019-02-06T12:11:22.835Z,8.28
2019-02-06T12:12:08.204Z,8.36
2019-02-06T12:13:08.222Z,8.2
2019-02-06T12:14:22.908Z,8.08
2019-02-06T12:15:08.252Z,8.02
2019-02-06T12:16:08.275Z,8.07
2019-02-06T12:17:08.285Z,8.1
2019-02-06T12:18:08.510Z,7.97
2019-02-06T12:19:08.325Z,8.01
2019-02-06T12:20:08.338Z,7.98
2019-02-06T12:21:08.486Z,8
2019-02-06T12:22:08.422Z,8.04
2019-02-06T12:23:08.392Z,8.02
2019-02-06T12:24:08.398Z,8.05
2019-02-06T12:25:08.431Z,8.12
2019-02-06T12:26:08.432Z,8.11
2019-02-06T12:27:08.459Z,8.02
2019-02-06T12:28:09.755Z,7.97
2019-02-06T12:29:09.030Z,7.9
2019-02-06T12:30:23.168Z,8.01
2019-02-06T12:31:08.530Z,8
2019-02-06T12:33:08.566Z,8
2019-02-06T12:34:08.578Z,8.04
2019-02-06T12:35:08.595Z,8.04
2019-02-06T12:36:08.747Z,7.98
2019-02-06T12:37:08.646Z,8.07
2019-02-06T12:38:08.645Z,8.07
2019-02-06T12:39:08.651Z,8.04
2019-02-06T12:40:08.669Z,8.04
2019-02-06T12:42:08.710Z,7.93
2019-02-06T12:43:10.434Z,7.95
2019-02-06T12:44:08.743Z,7.93
2019-02-06T12:45:08.752Z,7.98
2019-02-06T12:46:23.427Z,7.98
2019-02-06T12:47:08.784Z,8.05
2019-02-06T12:48:08.804Z,8
2019-02-06T12:49:08.929Z,8.01
2019-02-06T12:50:09.172Z,8
2019-02-06T12:51:08.859Z,8.01
2019-02-06T12:52:23.531Z,8.05
2019-02-06T12:53:08.910Z,8.08
2019-02-06T12:54:08.925Z,8.11
2019-02-06T12:55:08.933Z,8.12
2019-02-06T12:56:08.943Z,8
2019-02-06T12:57:23.609Z,7.9
2019-02-06T12:58:09.638Z,7.75
2019-02-06T12:59:09.006Z,7.86
2019-02-06T13:00:09.081Z,7.79
2019-02-06T13:01:09.081Z,7.8
2019-02-06T13:02:23.694Z,7.82
2019-02-06T13:03:09.049Z,7.74
2019-02-06T13:04:09.094Z,7.6
2019-02-06T13:05:09.336Z,7.61
2019-02-06T13:06:09.105Z,7.57
2019-02-06T13:07:09.121Z,7.53
2019-02-06T13:09:09.151Z,7.64
2019-02-06T13:10:09.185Z,7.57
2019-02-06T13:11:09.215Z,7.49
2019-02-06T13:12:09.205Z,7.74
2019-02-06T13:13:09.893Z,7.52
2019-02-06T13:14:09.233Z,7.61
2019-02-06T13:15:09.249Z,7.57
2019-02-06T13:16:09.271Z,7.64
2019-02-06T13:17:23.943Z,7.57
2019-02-06T13:18:09.353Z,7.68
2019-02-06T13:19:09.320Z,7.6
2019-02-06T13:20:09.331Z,7.58
2019-02-06T13:21:09.721Z,7.67
2019-02-06T13:22:09.371Z,7.6
2019-02-06T13:23:09.133Z,7.68
2019-02-06T13:24:09.405Z,7.68
2019-02-06T13:25:09.419Z,7.64
2019-02-06T13:26:09.433Z,7.55
2019-02-06T13:27:09.468Z,7.6
2019-02-06T13:28:09.881Z,7.63
2019-02-06T13:29:09.489Z,7.64
2019-02-06T13:31:09.514Z,7.52
2019-02-06T13:32:09.535Z,7.58
2019-02-06T13:33:11.656Z,7.58
2019-02-06T13:34:09.571Z,7.69
2019-02-06T13:35:09.586Z,7.67
2019-02-06T13:36:10.188Z,7.68
2019-02-06T13:37:09.616Z,7.71
2019-02-06T13:38:09.629Z,7.71
2019-02-06T13:39:09.640Z,7.8
2019-02-06T13:40:09.663Z,7.69
2019-02-06T13:41:09.680Z,7.67
2019-02-06T13:42:10.385Z,7.58
2019-02-06T13:43:09.739Z,7.58
2019-02-06T13:44:10.089Z,7.64
2019-02-06T13:45:09.744Z,7.69
2019-02-06T13:46:09.763Z,7.63
2019-02-06T13:47:09.779Z,7.58
2019-02-06T13:48:09.796Z,7.52
2019-02-06T13:49:24.472Z,7.52
2019-02-06T13:50:21.174Z,7.43
2019-02-06T13:51:22.207Z,7.49
2019-02-06T13:52:09.869Z,7.49
2019-02-06T13:53:09.877Z,7.46
2019-02-06T13:54:09.900Z,7.49
2019-02-06T13:55:09.910Z,7.5
2019-02-06T13:56:09.925Z,7.48
2019-02-06T13:57:09.948Z,7.5
2019-02-06T13:58:22.220Z,7.61
2019-02-06T13:59:12.245Z,7.58
2019-02-06T14:00:09.990Z,7.53
2019-02-06T14:01:10.008Z,7.46
2019-02-06T14:02:10.025Z,7.53
2019-02-06T14:03:10.139Z,7.49
2019-02-06T14:04:10.063Z,7.46
2019-02-06T14:06:11.382Z,7.34
2019-02-06T14:07:10.852Z,7.43
2019-02-06T14:09:20.691Z,7.21
2019-02-06T14:10:10.254Z,7.25